Pagrindinis puslapis
METAR-TAF:

METAR-TAF

Oro uostai :

Orhusas, Danija

platuma: 56-18N, ilguma: 010-37E, Aukštis: 23 m

Dabartinis oras

Ataskaita buvo paskelbta 24 minutes, ne 09:50 UTC
Vėjas 10 kt iš Vakarų/Pietvakarių, svyruoja nuo Pietų/Pietvakarių ir Vakarų
Temperatūra 14°C
Drėgmė 94%
Slėgis 1011 hPa
Matomumas 10 km arba daugiau

METAR: EKAH 270950Z AUTO 24010KT 200V270 9999 OVC014/// 14/13 Q1011

Laikas: 12:14 (10:14 UTC)

Prognozė

Ataskaita buvo paskelbta 5 valandos ir 10 minutes, ne 05:04 UTC
Prognozė galioja nuo 27 metu 06 UTC su 28 metu 06 UTC
Vėjas 12 kt iš Pietvakarių
Matomumas: 8000 m
Su prošvaistėmis ne aukštis 1500 ft
Laikinai
nuo 27 metu 06 UTC su 27 metu 16 UTC
Su prošvaistėmis ne aukštis 1200 ft
Laikinai
nuo 27 metu 16 UTC su 28 metu 06 UTC
Matomumas: 4000 m
Su prošvaistėmis ne aukštis 1200 ft
rūkana

TAF: EKAH 270504Z 2706/2806 22012KT 8000 BKN015 TEMPO 2706/2716 BKN012 TEMPO 2716/2806 4000 BR BKN012

Orai ataskaitas ir orų prognozės (METAR, TAF).

turimą stotys yra geltonos ir raudonos taškus žemėlapyje.

Perkelti pele per norėdami pamatyti stoties vardą.

Tada spustelėkite, norėdami matyti oro stebėjimo ir prognozės.

Norėdami pakeisti žemėlapį: spustelėkite ant žalios mygtukų su juodo kryžiaus žemyn,; žalią mygtuką su brūkšneliu, jei norite nutolinti; arba žalių rodyklių gretimoms žemėlapius.


METAR-TAF: